sensor_id;sensor_type;location;lat;lon;timestamp;temperature;humidity
70830;SHT30;58451;51.550;7.208;2023-08-20T00:00:25;19.28;81.30
70830;SHT30;58451;51.550;7.208;2023-08-20T00:01:57;19.26;81.37
70830;SHT30;58451;51.550;7.208;2023-08-20T00:03:33;19.24;81.37
70830;SHT30;58451;51.550;7.208;2023-08-20T00:05:06;19.21;81.43
70830;SHT30;58451;51.550;7.208;2023-08-20T00:06:39;19.19;81.47
70830;SHT30;58451;51.550;7.208;2023-08-20T00:08:11;19.18;81.50
70830;SHT30;58451;51.550;7.208;2023-08-20T00:09:42;19.16;81.53
70830;SHT30;58451;51.550;7.208;2023-08-20T00:11:15;19.14;81.58
70830;SHT30;58451;51.550;7.208;2023-08-20T00:12:48;19.12;81.62
70830;SHT30;58451;51.550;7.208;2023-08-20T00:14:20;19.10;81.65
70830;SHT30;58451;51.550;7.208;2023-08-20T00:16:12;19.09;81.63
70830;SHT30;58451;51.550;7.208;2023-08-20T00:17:45;19.08;81.68
70830;SHT30;58451;51.550;7.208;2023-08-20T00:19:18;19.06;81.75
70830;SHT30;58451;51.550;7.208;2023-08-20T00:20:51;19.04;81.82
70830;SHT30;58451;51.550;7.208;2023-08-20T00:22:25;19.02;81.82
70830;SHT30;58451;51.550;7.208;2023-08-20T00:23:58;19.00;81.88
70830;SHT30;58451;51.550;7.208;2023-08-20T00:25:30;18.98;81.90
70830;SHT30;58451;51.550;7.208;2023-08-20T00:27:02;18.98;81.97
70830;SHT30;58451;51.550;7.208;2023-08-20T00:28:34;18.97;82.00
70830;SHT30;58451;51.550;7.208;2023-08-20T00:30:08;18.96;82.02
70830;SHT30;58451;51.550;7.208;2023-08-20T00:31:42;18.95;82.08
70830;SHT30;58451;51.550;7.208;2023-08-20T00:33:14;18.94;82.12
70830;SHT30;58451;51.550;7.208;2023-08-20T00:34:46;18.94;82.15
70830;SHT30;58451;51.550;7.208;2023-08-20T00:36:18;18.92;82.18
70830;SHT30;58451;51.550;7.208;2023-08-20T00:37:50;18.91;82.23
70830;SHT30;58451;51.550;7.208;2023-08-20T00:39:24;18.91;82.33
70830;SHT30;58451;51.550;7.208;2023-08-20T00:40:56;18.89;82.42
70830;SHT30;58451;51.550;7.208;2023-08-20T00:42:28;18.86;82.47
70830;SHT30;58451;51.550;7.208;2023-08-20T00:44:01;18.85;82.42
70830;SHT30;58451;51.550;7.208;2023-08-20T00:45:34;18.85;82.48
70830;SHT30;58451;51.550;7.208;2023-08-20T00:47:07;18.84;82.47
70830;SHT30;58451;51.550;7.208;2023-08-20T00:48:40;18.82;82.48
70830;SHT30;58451;51.550;7.208;2023-08-20T00:50:12;18.80;82.55
70830;SHT30;58451;51.550;7.208;2023-08-20T00:51:44;18.79;82.58
70830;SHT30;58451;51.550;7.208;2023-08-20T00:53:17;18.79;82.60
70830;SHT30;58451;51.550;7.208;2023-08-20T00:54:50;18.78;82.62
70830;SHT30;58451;51.550;7.208;2023-08-20T00:56:22;18.76;82.65
70830;SHT30;58451;51.550;7.208;2023-08-20T00:57:54;18.76;82.67
70830;SHT30;58451;51.550;7.208;2023-08-20T00:59:27;18.74;82.68
70830;SHT30;58451;51.550;7.208;2023-08-20T01:01:01;18.73;82.68
70830;SHT30;58451;51.550;7.208;2023-08-20T01:02:33;18.72;82.77
70830;SHT30;58451;51.550;7.208;2023-08-20T01:04:06;18.69;82.75
70830;SHT30;58451;51.550;7.208;2023-08-20T01:05:39;18.69;82.78
70830;SHT30;58451;51.550;7.208;2023-08-20T01:09:50;18.65;82.78
70830;SHT30;58451;51.550;7.208;2023-08-20T01:11:45;18.63;82.82
70830;SHT30;58451;51.550;7.208;2023-08-20T01:13:23;18.63;82.92
70830;SHT30;58451;51.550;7.208;2023-08-20T01:14:56;18.59;83.00
70830;SHT30;58451;51.550;7.208;2023-08-20T01:16:28;18.58;83.07
70830;SHT30;58451;51.550;7.208;2023-08-20T01:17:59;18.57;83.08
70830;SHT30;58451;51.550;7.208;2023-08-20T01:19:32;18.56;83.12
70830;SHT30;58451;51.550;7.208;2023-08-20T01:21:10;18.55;83.15
70830;SHT30;58451;51.550;7.208;2023-08-20T01:27:19;18.50;83.10
70830;SHT30;58451;51.550;7.208;2023-08-20T01:29:14;18.48;83.07
70830;SHT30;58451;51.550;7.208;2023-08-20T01:30:46;18.47;83.18
70830;SHT30;58451;51.550;7.208;2023-08-20T01:32:19;18.45;83.17
70830;SHT30;58451;51.550;7.208;2023-08-20T01:33:53;18.45;83.18
70830;SHT30;58451;51.550;7.208;2023-08-20T01:35:29;18.43;83.18
70830;SHT30;58451;51.550;7.208;2023-08-20T01:37:07;18.41;83.22
70830;SHT30;58451;51.550;7.208;2023-08-20T01:38:39;18.40;83.27
70830;SHT30;58451;51.550;7.208;2023-08-20T01:40:11;18.38;83.30
70830;SHT30;58451;51.550;7.208;2023-08-20T01:41:44;18.36;83.30
70830;SHT30;58451;51.550;7.208;2023-08-20T01:43:16;18.36;83.37
70830;SHT30;58451;51.550;7.208;2023-08-20T01:44:48;18.35;83.43
70830;SHT30;58451;51.550;7.208;2023-08-20T01:46:20;18.33;83.52
70830;SHT30;58451;51.550;7.208;2023-08-20T01:47:55;18.32;83.45
70830;SHT30;58451;51.550;7.208;2023-08-20T01:49:27;18.32;83.47
70830;SHT30;58451;51.550;7.208;2023-08-20T01:50:59;18.31;83.47
70830;SHT30;58451;51.550;7.208;2023-08-20T01:52:30;18.31;83.48
70830;SHT30;58451;51.550;7.208;2023-08-20T01:54:03;18.30;83.50
70830;SHT30;58451;51.550;7.208;2023-08-20T01:55:35;18.28;83.48
70830;SHT30;58451;51.550;7.208;2023-08-20T01:57:07;18.27;83.52
70830;SHT30;58451;51.550;7.208;2023-08-20T01:58:39;18.26;83.50
70830;SHT30;58451;51.550;7.208;2023-08-20T02:00:11;18.25;83.48
70830;SHT30;58451;51.550;7.208;2023-08-20T02:01:44;18.23;83.53
70830;SHT30;58451;51.550;7.208;2023-08-20T02:03:16;18.23;83.53
70830;SHT30;58451;51.550;7.208;2023-08-20T02:04:48;18.22;83.60
70830;SHT30;58451;51.550;7.208;2023-08-20T02:06:20;18.20;83.62
70830;SHT30;58451;51.550;7.208;2023-08-20T02:07:53;18.19;83.65
70830;SHT30;58451;51.550;7.208;2023-08-20T02:09:25;18.18;83.67
70830;SHT30;58451;51.550;7.208;2023-08-20T02:11:01;18.18;83.68
70830;SHT30;58451;51.550;7.208;2023-08-20T02:12:34;18.16;83.70
70830;SHT30;58451;51.550;7.208;2023-08-20T02:14:06;18.15;83.75
70830;SHT30;58451;51.550;7.208;2023-08-20T02:15:38;18.14;83.83
70830;SHT30;58451;51.550;7.208;2023-08-20T02:17:10;18.13;83.82
70830;SHT30;58451;51.550;7.208;2023-08-20T02:18:47;18.13;83.88
70830;SHT30;58451;51.550;7.208;2023-08-20T02:20:19;18.12;83.93
70830;SHT30;58451;51.550;7.208;2023-08-20T02:21:53;18.11;84.02
70830;SHT30;58451;51.550;7.208;2023-08-20T02:23:25;18.10;84.05
70830;SHT30;58451;51.550;7.208;2023-08-20T02:24:57;18.10;84.15
70830;SHT30;58451;51.550;7.208;2023-08-20T02:26:29;18.10;84.20
70830;SHT30;58451;51.550;7.208;2023-08-20T02:28:01;18.11;84.30
70830;SHT30;58451;51.550;7.208;2023-08-20T02:29:34;18.11;84.53
70830;SHT30;58451;51.550;7.208;2023-08-20T02:31:06;18.11;84.60
70830;SHT30;58451;51.550;7.208;2023-08-20T02:32:38;18.10;84.62
70830;SHT30;58451;51.550;7.208;2023-08-20T02:34:11;18.10;84.58
70830;SHT30;58451;51.550;7.208;2023-08-20T02:35:43;18.11;84.53
70830;SHT30;58451;51.550;7.208;2023-08-20T02:37:16;18.11;84.47
70830;SHT30;58451;51.550;7.208;2023-08-20T02:38:49;18.11;84.45
70830;SHT30;58451;51.550;7.208;2023-08-20T02:40:21;18.11;84.45
70830;SHT30;58451;51.550;7.208;2023-08-20T02:41:53;18.10;84.50
70830;SHT30;58451;51.550;7.208;2023-08-20T02:43:25;18.10;84.48
70830;SHT30;58451;51.550;7.208;2023-08-20T02:44:57;18.10;84.53
70830;SHT30;58451;51.550;7.208;2023-08-20T02:46:29;18.10;84.53
70830;SHT30;58451;51.550;7.208;2023-08-20T02:48:01;18.09;84.57
70830;SHT30;58451;51.550;7.208;2023-08-20T02:49:33;18.09;84.55
70830;SHT30;58451;51.550;7.208;2023-08-20T02:51:07;18.08;84.57
70830;SHT30;58451;51.550;7.208;2023-08-20T02:52:41;18.08;84.58
70830;SHT30;58451;51.550;7.208;2023-08-20T02:54:14;18.08;84.57
70830;SHT30;58451;51.550;7.208;2023-08-20T02:55:46;18.07;84.58
70830;SHT30;58451;51.550;7.208;2023-08-20T02:57:18;18.08;84.57
70830;SHT30;58451;51.550;7.208;2023-08-20T02:58:50;18.07;84.57
70830;SHT30;58451;51.550;7.208;2023-08-20T03:00:22;18.07;84.58
70830;SHT30;58451;51.550;7.208;2023-08-20T03:01:54;18.07;84.60
70830;SHT30;58451;51.550;7.208;2023-08-20T03:03:26;18.05;84.58
70830;SHT30;58451;51.550;7.208;2023-08-20T03:04:58;18.05;84.65
70830;SHT30;58451;51.550;7.208;2023-08-20T03:06:30;18.04;84.65
70830;SHT30;58451;51.550;7.208;2023-08-20T03:08:03;18.04;84.68
70830;SHT30;58451;51.550;7.208;2023-08-20T03:09:35;18.03;84.70
70830;SHT30;58451;51.550;7.208;2023-08-20T03:11:07;18.03;84.70
70830;SHT30;58451;51.550;7.208;2023-08-20T03:12:39;18.02;84.70
70830;SHT30;58451;51.550;7.208;2023-08-20T03:14:11;18.01;84.70
70830;SHT30;58451;51.550;7.208;2023-08-20T03:15:43;18.00;84.73
70830;SHT30;58451;51.550;7.208;2023-08-20T03:17:15;18.00;84.73
70830;SHT30;58451;51.550;7.208;2023-08-20T03:18:49;17.98;84.75
70830;SHT30;58451;51.550;7.208;2023-08-20T03:20:21;17.98;84.75
70830;SHT30;58451;51.550;7.208;2023-08-20T03:21:53;17.96;84.72
70830;SHT30;58451;51.550;7.208;2023-08-20T03:23:26;17.96;84.77
70830;SHT30;58451;51.550;7.208;2023-08-20T03:25:00;17.94;84.77
70830;SHT30;58451;51.550;7.208;2023-08-20T03:26:32;17.94;84.77
70830;SHT30;58451;51.550;7.208;2023-08-20T03:28:04;17.94;84.78
70830;SHT30;58451;51.550;7.208;2023-08-20T03:29:36;17.94;84.82
70830;SHT30;58451;51.550;7.208;2023-08-20T03:31:11;17.93;84.78
70830;SHT30;58451;51.550;7.208;2023-08-20T03:32:44;17.92;84.82
70830;SHT30;58451;51.550;7.208;2023-08-20T03:34:16;17.93;84.85
70830;SHT30;58451;51.550;7.208;2023-08-20T03:35:48;17.94;84.85
70830;SHT30;58451;51.550;7.208;2023-08-20T03:37:20;17.95;84.92
70830;SHT30;58451;51.550;7.208;2023-08-20T03:38:53;17.97;84.95
70830;SHT30;58451;51.550;7.208;2023-08-20T03:40:27;17.97;84.98
70830;SHT30;58451;51.550;7.208;2023-08-20T03:41:59;18.01;85.07
70830;SHT30;58451;51.550;7.208;2023-08-20T03:43:31;18.01;85.07
70830;SHT30;58451;51.550;7.208;2023-08-20T03:45:04;18.02;85.07
70830;SHT30;58451;51.550;7.208;2023-08-20T03:46:37;18.05;85.08
70830;SHT30;58451;51.550;7.208;2023-08-20T03:48:09;18.06;85.12
70830;SHT30;58451;51.550;7.208;2023-08-20T03:49:41;18.06;85.12
70830;SHT30;58451;51.550;7.208;2023-08-20T03:51:13;18.08;85.12
70830;SHT30;58451;51.550;7.208;2023-08-20T03:52:45;18.10;85.17
70830;SHT30;58451;51.550;7.208;2023-08-20T03:54:19;18.12;85.20
70830;SHT30;58451;51.550;7.208;2023-08-20T03:55:51;18.12;85.17
70830;SHT30;58451;51.550;7.208;2023-08-20T03:57:23;18.13;85.17
70830;SHT30;58451;51.550;7.208;2023-08-20T03:58:56;18.13;85.15
70830;SHT30;58451;51.550;7.208;2023-08-20T04:00:28;18.14;85.18
70830;SHT30;58451;51.550;7.208;2023-08-20T04:02:00;18.16;85.20
70830;SHT30;58451;51.550;7.208;2023-08-20T04:03:32;18.19;85.30
70830;SHT30;58451;51.550;7.208;2023-08-20T04:05:04;18.22;85.35
70830;SHT30;58451;51.550;7.208;2023-08-20T04:06:36;18.25;85.38
70830;SHT30;58451;51.550;7.208;2023-08-20T04:08:08;18.28;85.43
70830;SHT30;58451;51.550;7.208;2023-08-20T04:09:42;18.32;85.38
70830;SHT30;58451;51.550;7.208;2023-08-20T04:11:18;18.34;85.45
70830;SHT30;58451;51.550;7.208;2023-08-20T04:12:49;18.36;85.47
70830;SHT30;58451;51.550;7.208;2023-08-20T04:14:21;18.39;85.42
70830;SHT30;58451;51.550;7.208;2023-08-20T04:15:55;18.41;85.43
70830;SHT30;58451;51.550;7.208;2023-08-20T04:17:27;18.44;85.40
70830;SHT30;58451;51.550;7.208;2023-08-20T04:18:59;18.46;85.47
70830;SHT30;58451;51.550;7.208;2023-08-20T04:20:33;18.49;85.47
70830;SHT30;58451;51.550;7.208;2023-08-20T04:22:06;18.51;85.47
70830;SHT30;58451;51.550;7.208;2023-08-20T04:23:38;18.53;85.47
70830;SHT30;58451;51.550;7.208;2023-08-20T04:25:10;18.55;85.42
70830;SHT30;58451;51.550;7.208;2023-08-20T04:26:42;18.58;85.47
70830;SHT30;58451;51.550;7.208;2023-08-20T04:28:15;18.60;85.43
70830;SHT30;58451;51.550;7.208;2023-08-20T04:29:47;18.63;85.47
70830;SHT30;58451;51.550;7.208;2023-08-20T04:31:22;18.66;85.45
70830;SHT30;58451;51.550;7.208;2023-08-20T04:33:02;18.67;85.42
70830;SHT30;58451;51.550;7.208;2023-08-20T04:34:34;18.71;85.45
70830;SHT30;58451;51.550;7.208;2023-08-20T04:36:06;18.73;85.38
70830;SHT30;58451;51.550;7.208;2023-08-20T04:37:38;18.77;85.47
70830;SHT30;58451;51.550;7.208;2023-08-20T04:39:15;18.78;85.47
70830;SHT30;58451;51.550;7.208;2023-08-20T04:40:49;18.81;85.47
70830;SHT30;58451;51.550;7.208;2023-08-20T04:42:21;18.84;85.45
70830;SHT30;58451;51.550;7.208;2023-08-20T04:43:53;18.86;85.52
70830;SHT30;58451;51.550;7.208;2023-08-20T04:45:26;18.89;85.62
70830;SHT30;58451;51.550;7.208;2023-08-20T04:46:59;18.89;85.62
70830;SHT30;58451;51.550;7.208;2023-08-20T04:48:33;18.92;85.55
70830;SHT30;58451;51.550;7.208;2023-08-20T04:50:05;18.94;85.53
70830;SHT30;58451;51.550;7.208;2023-08-20T04:51:40;18.97;85.52
70830;SHT30;58451;51.550;7.208;2023-08-20T04:53:12;19.01;85.52
70830;SHT30;58451;51.550;7.208;2023-08-20T04:54:47;19.03;85.53
70830;SHT30;58451;51.550;7.208;2023-08-20T04:56:19;19.08;85.53
70830;SHT30;58451;51.550;7.208;2023-08-20T04:57:51;19.11;85.48
70830;SHT30;58451;51.550;7.208;2023-08-20T04:59:23;19.15;85.48
70830;SHT30;58451;51.550;7.208;2023-08-20T05:01:27;19.20;85.37
70830;SHT30;58451;51.550;7.208;2023-08-20T05:03:00;19.27;85.43
70830;SHT30;58451;51.550;7.208;2023-08-20T05:04:33;19.32;85.43
70830;SHT30;58451;51.550;7.208;2023-08-20T05:06:05;19.38;85.47
70830;SHT30;58451;51.550;7.208;2023-08-20T05:07:37;19.40;85.42
70830;SHT30;58451;51.550;7.208;2023-08-20T05:09:09;19.44;85.37
70830;SHT30;58451;51.550;7.208;2023-08-20T05:10:41;19.48;85.40
70830;SHT30;58451;51.550;7.208;2023-08-20T05:12:13;19.51;85.42
70830;SHT30;58451;51.550;7.208;2023-08-20T05:13:47;19.52;85.48
70830;SHT30;58451;51.550;7.208;2023-08-20T05:15:22;19.55;85.45
70830;SHT30;58451;51.550;7.208;2023-08-20T05:16:54;19.57;85.48
70830;SHT30;58451;51.550;7.208;2023-08-20T05:18:27;19.58;85.43
70830;SHT30;58451;51.550;7.208;2023-08-20T05:19:59;19.60;85.38
70830;SHT30;58451;51.550;7.208;2023-08-20T05:21:31;19.62;85.45
70830;SHT30;58451;51.550;7.208;2023-08-20T05:23:03;19.62;85.52
70830;SHT30;58451;51.550;7.208;2023-08-20T05:24:37;19.64;85.53
70830;SHT30;58451;51.550;7.208;2023-08-20T05:26:10;19.65;85.52
70830;SHT30;58451;51.550;7.208;2023-08-20T05:27:42;19.66;85.55
70830;SHT30;58451;51.550;7.208;2023-08-20T05:29:14;19.67;85.57
70830;SHT30;58451;51.550;7.208;2023-08-20T05:30:56;19.68;85.65
70830;SHT30;58451;51.550;7.208;2023-08-20T05:32:29;19.69;85.68
70830;SHT30;58451;51.550;7.208;2023-08-20T05:34:02;19.69;85.65
70830;SHT30;58451;51.550;7.208;2023-08-20T05:35:35;19.72;85.58
70830;SHT30;58451;51.550;7.208;2023-08-20T05:37:07;19.74;85.55
70830;SHT30;58451;51.550;7.208;2023-08-20T05:38:40;19.76;85.55
70830;SHT30;58451;51.550;7.208;2023-08-20T05:40:14;19.80;85.60
70830;SHT30;58451;51.550;7.208;2023-08-20T05:41:46;19.83;85.58
70830;SHT30;58451;51.550;7.208;2023-08-20T05:43:19;19.87;85.48
70830;SHT30;58451;51.550;7.208;2023-08-20T05:44:51;19.92;85.48
70830;SHT30;58451;51.550;7.208;2023-08-20T05:46:26;19.98;85.47
70830;SHT30;58451;51.550;7.208;2023-08-20T05:47:58;20.01;85.55
70830;SHT30;58451;51.550;7.208;2023-08-20T05:49:30;20.00;85.48
70830;SHT30;58451;51.550;7.208;2023-08-20T05:51:03;20.03;85.45
70830;SHT30;58451;51.550;7.208;2023-08-20T05:52:35;20.06;85.40
70830;SHT30;58451;51.550;7.208;2023-08-20T05:54:08;20.09;85.38
70830;SHT30;58451;51.550;7.208;2023-08-20T05:55:39;20.12;85.35
70830;SHT30;58451;51.550;7.208;2023-08-20T05:57:11;20.18;85.28
70830;SHT30;58451;51.550;7.208;2023-08-20T05:58:45;20.24;85.28
70830;SHT30;58451;51.550;7.208;2023-08-20T06:00:17;20.30;85.28
70830;SHT30;58451;51.550;7.208;2023-08-20T06:01:52;20.37;85.25
70830;SHT30;58451;51.550;7.208;2023-08-20T06:03:25;20.43;85.18
70830;SHT30;58451;51.550;7.208;2023-08-20T06:04:57;20.49;85.10
70830;SHT30;58451;51.550;7.208;2023-08-20T06:06:29;20.57;84.97
70830;SHT30;58451;51.550;7.208;2023-08-20T06:08:01;20.65;85.03
70830;SHT30;58451;51.550;7.208;2023-08-20T06:09:34;20.71;84.97
70830;SHT30;58451;51.550;7.208;2023-08-20T06:11:07;20.80;84.97
70830;SHT30;58451;51.550;7.208;2023-08-20T06:12:39;20.87;84.90
70830;SHT30;58451;51.550;7.208;2023-08-20T06:14:11;20.93;84.92
70830;SHT30;58451;51.550;7.208;2023-08-20T06:15:43;21.00;84.83
70830;SHT30;58451;51.550;7.208;2023-08-20T06:17:15;21.05;84.80
70830;SHT30;58451;51.550;7.208;2023-08-20T06:18:48;21.11;84.73
70830;SHT30;58451;51.550;7.208;2023-08-20T06:20:21;21.16;84.63
70830;SHT30;58451;51.550;7.208;2023-08-20T06:21:53;21.22;84.50
70830;SHT30;58451;51.550;7.208;2023-08-20T06:23:25;21.28;84.57
70830;SHT30;58451;51.550;7.208;2023-08-20T06:25:13;21.34;84.50
70830;SHT30;58451;51.550;7.208;2023-08-20T06:26:46;21.40;84.45
70830;SHT30;58451;51.550;7.208;2023-08-20T06:28:19;21.45;84.40
70830;SHT30;58451;51.550;7.208;2023-08-20T06:29:51;21.50;84.35
70830;SHT30;58451;51.550;7.208;2023-08-20T06:31:23;21.58;84.33
70830;SHT30;58451;51.550;7.208;2023-08-20T06:32:55;21.63;84.25
70830;SHT30;58451;51.550;7.208;2023-08-20T06:34:27;21.72;84.15
70830;SHT30;58451;51.550;7.208;2023-08-20T06:35:59;21.78;84.00
70830;SHT30;58451;51.550;7.208;2023-08-20T06:37:31;21.88;83.90
70830;SHT30;58451;51.550;7.208;2023-08-20T06:39:04;21.98;83.85
70830;SHT30;58451;51.550;7.208;2023-08-20T06:40:36;22.06;83.78
70830;SHT30;58451;51.550;7.208;2023-08-20T06:42:08;22.15;83.73
70830;SHT30;58451;51.550;7.208;2023-08-20T06:43:40;22.23;83.58
70830;SHT30;58451;51.550;7.208;2023-08-20T06:45:12;22.30;83.50
70830;SHT30;58451;51.550;7.208;2023-08-20T06:46:44;22.35;83.35
70830;SHT30;58451;51.550;7.208;2023-08-20T06:48:16;22.39;83.20
70830;SHT30;58451;51.550;7.208;2023-08-20T06:49:51;22.48;83.20
70830;SHT30;58451;51.550;7.208;2023-08-20T06:51:23;22.57;83.10
70830;SHT30;58451;51.550;7.208;2023-08-20T06:52:56;22.67;82.92
70830;SHT30;58451;51.550;7.208;2023-08-20T06:54:28;22.77;82.63
70830;SHT30;58451;51.550;7.208;2023-08-20T06:56:00;22.85;82.57
70830;SHT30;58451;51.550;7.208;2023-08-20T06:57:32;22.90;82.32
70830;SHT30;58451;51.550;7.208;2023-08-20T06:59:05;22.96;82.18
70830;SHT30;58451;51.550;7.208;2023-08-20T07:00:38;22.98;81.87
70830;SHT30;58451;51.550;7.208;2023-08-20T07:02:10;23.01;81.73
70830;SHT30;58451;51.550;7.208;2023-08-20T07:03:43;23.07;81.55
70830;SHT30;58451;51.550;7.208;2023-08-20T07:05:15;23.06;81.28
70830;SHT30;58451;51.550;7.208;2023-08-20T07:06:48;23.07;81.17
70830;SHT30;58451;51.550;7.208;2023-08-20T07:08:20;23.09;81.07
70830;SHT30;58451;51.550;7.208;2023-08-20T07:09:52;23.12;80.82
70830;SHT30;58451;51.550;7.208;2023-08-20T07:11:24;23.14;80.70
70830;SHT30;58451;51.550;7.208;2023-08-20T07:12:56;23.20;80.62
70830;SHT30;58451;51.550;7.208;2023-08-20T07:14:28;23.25;80.48
70830;SHT30;58451;51.550;7.208;2023-08-20T07:16:00;23.32;80.38
70830;SHT30;58451;51.550;7.208;2023-08-20T07:17:33;23.42;80.33
70830;SHT30;58451;51.550;7.208;2023-08-20T07:19:06;23.52;80.10
70830;SHT30;58451;51.550;7.208;2023-08-20T07:20:37;23.65;79.92
70830;SHT30;58451;51.550;7.208;2023-08-20T07:22:10;23.76;79.78
70830;SHT30;58451;51.550;7.208;2023-08-20T07:23:42;23.90;79.67
70830;SHT30;58451;51.550;7.208;2023-08-20T07:25:14;24.03;79.25
70830;SHT30;58451;51.550;7.208;2023-08-20T07:26:46;24.08;78.85
70830;SHT30;58451;51.550;7.208;2023-08-20T07:28:18;24.11;78.58
70830;SHT30;58451;51.550;7.208;2023-08-20T07:29:58;24.10;78.52
70830;SHT30;58451;51.550;7.208;2023-08-20T07:31:30;24.09;78.40
70830;SHT30;58451;51.550;7.208;2023-08-20T07:33:06;24.13;78.42
70830;SHT30;58451;51.550;7.208;2023-08-20T07:34:38;24.21;77.92
70830;SHT30;58451;51.550;7.208;2023-08-20T07:36:10;24.26;77.52
70830;SHT30;58451;51.550;7.208;2023-08-20T07:37:42;24.32;77.40
70830;SHT30;58451;51.550;7.208;2023-08-20T07:39:14;24.40;77.43
70830;SHT30;58451;51.550;7.208;2023-08-20T07:40:49;24.48;77.30
70830;SHT30;58451;51.550;7.208;2023-08-20T07:42:21;24.55;77.18
70830;SHT30;58451;51.550;7.208;2023-08-20T07:43:53;24.67;77.13
70830;SHT30;58451;51.550;7.208;2023-08-20T07:45:25;24.79;77.03
70830;SHT30;58451;51.550;7.208;2023-08-20T07:46:57;24.84;76.77
70830;SHT30;58451;51.550;7.208;2023-08-20T07:48:29;24.81;75.73
70830;SHT30;58451;51.550;7.208;2023-08-20T07:50:01;24.71;75.97
70830;SHT30;58451;51.550;7.208;2023-08-20T07:51:33;24.65;76.20
70830;SHT30;58451;51.550;7.208;2023-08-20T07:53:05;24.67;76.22
70830;SHT30;58451;51.550;7.208;2023-08-20T07:54:37;24.70;75.65
70830;SHT30;58451;51.550;7.208;2023-08-20T07:56:09;24.68;75.47
70830;SHT30;58451;51.550;7.208;2023-08-20T07:57:41;24.65;75.70
70830;SHT30;58451;51.550;7.208;2023-08-20T07:59:13;24.66;75.45
70830;SHT30;58451;51.550;7.208;2023-08-20T08:00:45;24.64;75.38
70830;SHT30;58451;51.550;7.208;2023-08-20T08:02:18;24.61;75.58
70830;SHT30;58451;51.550;7.208;2023-08-20T08:03:50;24.65;75.47
70830;SHT30;58451;51.550;7.208;2023-08-20T08:05:22;24.65;75.30
70830;SHT30;58451;51.550;7.208;2023-08-20T08:06:54;24.63;75.33
70830;SHT30;58451;51.550;7.208;2023-08-20T08:08:26;24.62;75.42
70830;SHT30;58451;51.550;7.208;2023-08-20T08:09:58;24.65;75.47
70830;SHT30;58451;51.550;7.208;2023-08-20T08:11:31;24.68;75.20
70830;SHT30;58451;51.550;7.208;2023-08-20T08:13:06;24.68;75.13
70830;SHT30;58451;51.550;7.208;2023-08-20T08:14:40;24.72;75.13
70830;SHT30;58451;51.550;7.208;2023-08-20T08:16:12;24.75;75.07
70830;SHT30;58451;51.550;7.208;2023-08-20T08:17:44;24.82;75.15
70830;SHT30;58451;51.550;7.208;2023-08-20T08:19:17;24.85;74.97
70830;SHT30;58451;51.550;7.208;2023-08-20T08:20:51;24.86;75.03
70830;SHT30;58451;51.550;7.208;2023-08-20T08:22:23;24.89;74.93
70830;SHT30;58451;51.550;7.208;2023-08-20T08:23:55;24.92;74.80
70830;SHT30;58451;51.550;7.208;2023-08-20T08:25:27;24.93;74.63
70830;SHT30;58451;51.550;7.208;2023-08-20T08:27:00;24.92;74.55
70830;SHT30;58451;51.550;7.208;2023-08-20T08:28:32;24.91;74.55
70830;SHT30;58451;51.550;7.208;2023-08-20T08:30:04;24.95;74.53
70830;SHT30;58451;51.550;7.208;2023-08-20T08:31:37;24.99;74.43
70830;SHT30;58451;51.550;7.208;2023-08-20T08:33:09;25.03;74.47
70830;SHT30;58451;51.550;7.208;2023-08-20T08:34:41;25.06;74.38
70830;SHT30;58451;51.550;7.208;2023-08-20T08:36:13;25.09;74.45
70830;SHT30;58451;51.550;7.208;2023-08-20T08:37:46;25.14;74.47
70830;SHT30;58451;51.550;7.208;2023-08-20T08:39:18;25.21;74.45
70830;SHT30;58451;51.550;7.208;2023-08-20T08:40:50;25.27;74.43
70830;SHT30;58451;51.550;7.208;2023-08-20T08:42:23;25.36;74.20
70830;SHT30;58451;51.550;7.208;2023-08-20T08:43:56;25.45;74.13
70830;SHT30;58451;51.550;7.208;2023-08-20T08:45:29;25.58;74.17
70830;SHT30;58451;51.550;7.208;2023-08-20T08:47:06;25.67;73.47
70830;SHT30;58451;51.550;7.208;2023-08-20T08:48:40;25.75;72.60
70830;SHT30;58451;51.550;7.208;2023-08-20T08:50:15;25.83;73.15
70830;SHT30;58451;51.550;7.208;2023-08-20T08:51:48;25.91;72.90
70830;SHT30;58451;51.550;7.208;2023-08-20T08:53:22;25.95;72.55
70830;SHT30;58451;51.550;7.208;2023-08-20T08:54:57;26.01;72.42
70830;SHT30;58451;51.550;7.208;2023-08-20T08:56:31;26.07;72.03
70830;SHT30;58451;51.550;7.208;2023-08-20T08:58:03;26.09;71.83
70830;SHT30;58451;51.550;7.208;2023-08-20T08:59:36;26.15;71.52
70830;SHT30;58451;51.550;7.208;2023-08-20T09:01:08;26.18;71.27
70830;SHT30;58451;51.550;7.208;2023-08-20T09:02:40;26.22;70.77
70830;SHT30;58451;51.550;7.208;2023-08-20T09:04:12;26.17;70.27
70830;SHT30;58451;51.550;7.208;2023-08-20T09:05:48;26.16;70.07
70830;SHT30;58451;51.550;7.208;2023-08-20T09:07:21;26.21;69.77
70830;SHT30;58451;51.550;7.208;2023-08-20T09:09:02;26.20;67.95
70830;SHT30;58451;51.550;7.208;2023-08-20T09:10:38;26.17;67.67
70830;SHT30;58451;51.550;7.208;2023-08-20T09:12:18;26.23;68.65
70830;SHT30;58451;51.550;7.208;2023-08-20T09:13:52;26.23;69.37
70830;SHT30;58451;51.550;7.208;2023-08-20T09:15:31;26.24;69.17
70830;SHT30;58451;51.550;7.208;2023-08-20T09:17:06;26.24;68.68
70830;SHT30;58451;51.550;7.208;2023-08-20T09:18:39;26.25;68.10
70830;SHT30;58451;51.550;7.208;2023-08-20T09:20:13;26.37;67.73
70830;SHT30;58451;51.550;7.208;2023-08-20T09:21:47;26.49;67.93
70830;SHT30;58451;51.550;7.208;2023-08-20T09:23:20;26.61;66.62
70830;SHT30;58451;51.550;7.208;2023-08-20T09:24:55;26.75;65.10
70830;SHT30;58451;51.550;7.208;2023-08-20T09:26:28;26.92;65.55
70830;SHT30;58451;51.550;7.208;2023-08-20T09:28:02;27.06;65.77
70830;SHT30;58451;51.550;7.208;2023-08-20T09:29:48;27.18;65.53
70830;SHT30;58451;51.550;7.208;2023-08-20T09:31:37;27.22;63.58
70830;SHT30;58451;51.550;7.208;2023-08-20T09:33:12;27.17;64.08
70830;SHT30;58451;51.550;7.208;2023-08-20T09:34:48;27.17;64.08
70830;SHT30;58451;51.550;7.208;2023-08-20T09:36:32;27.17;62.52
70830;SHT30;58451;51.550;7.208;2023-08-20T09:38:06;27.33;62.50
70830;SHT30;58451;51.550;7.208;2023-08-20T09:39:38;27.46;62.67
70830;SHT30;58451;51.550;7.208;2023-08-20T09:41:11;27.57;62.40
70830;SHT30;58451;51.550;7.208;2023-08-20T09:42:46;27.69;63.05
70830;SHT30;58451;51.550;7.208;2023-08-20T09:44:19;27.81;62.93
70830;SHT30;58451;51.550;7.208;2023-08-20T09:45:54;27.89;61.08
70830;SHT30;58451;51.550;7.208;2023-08-20T09:47:30;27.99;61.37
70830;SHT30;58451;51.550;7.208;2023-08-20T09:49:09;28.05;60.98
70830;SHT30;58451;51.550;7.208;2023-08-20T09:50:52;28.09;59.93
70830;SHT30;58451;51.550;7.208;2023-08-20T09:52:40;28.10;60.28
70830;SHT30;58451;51.550;7.208;2023-08-20T09:56:54;27.99;59.12
70830;SHT30;58451;51.550;7.208;2023-08-20T09:58:32;27.99;60.02